Time;durP1;ratioP1;P1;durP2;ratioP2;P2;SDS_P1;SDS_P2;PMS_P1;PMS_P2;Temp;Humidity;BMP_temperature;BMP_pressure;BME280_temperature;BME280_humidity;BME280_pressure;Samples;Min_cycle;Max_cycle;Signal;HPM_P1;HPM_P2
2022/07/20 00:00:55;;;;;;;9.40;2.90;;;;;;;24.41;39.29;100859.22;5009766;28;20202;-82
2022/07/20 00:03:23;;;;;;;6.90;2.50;;;;;;;24.37;39.50;100849.69;5009167;28;20580;-82
2022/07/20 00:05:49;;;;;;;5.35;2.67;;;;;;;24.32;39.83;100852.16;5011316;28;20245;-83
2022/07/20 00:11:19;;;;;;;6.25;3.10;;;;;;;24.28;40.43;100848.09;5006655;28;20223;-82
2022/07/20 00:11:20;;;;;;;7.25;2.88;;;;;;;24.22;40.38;100846.88;5002891;28;20202;-82
2022/07/20 00:13:47;;;;;;;5.22;2.58;;;;;;;24.05;40.45;100838.00;5006574;28;20276;-82
2022/07/20 00:16:13;;;;;;;4.15;2.80;;;;;;;23.93;40.70;100842.16;5003972;28;20202;-82
2022/07/20 00:18:41;;;;;;;11.68;3.20;;;;;;;23.84;41.07;100838.63;5006173;28;20213;-82
2022/07/20 00:21:08;;;;;;;6.30;2.75;;;;;;;23.77;41.21;100843.09;5003606;28;20205;-82
2022/07/20 00:23:34;;;;;;;6.53;2.70;;;;;;;23.71;41.42;100842.94;5009263;28;20231;-83
2022/07/20 00:26:01;;;;;;;5.60;2.65;;;;;;;23.69;41.37;100845.00;5005108;28;20229;-82
2022/07/20 00:28:27;;;;;;;5.75;2.97;;;;;;;23.65;41.17;100840.94;5008175;28;20214;-82
2022/07/20 00:30:54;;;;;;;4.85;3.05;;;;;;;23.64;41.11;100847.44;5013238;28;20213;-82
2022/07/20 00:33:20;;;;;;;5.22;2.90;;;;;;;23.62;41.11;100844.03;5010445;28;20218;-82
2022/07/20 00:35:48;;;;;;;5.63;2.70;;;;;;;23.57;41.40;100839.13;5014970;28;20206;-82
2022/07/20 00:38:15;;;;;;;7.38;2.88;;;;;;;23.46;41.30;100848.47;5003060;28;20206;-83
2022/07/20 00:40:42;;;;;;;7.93;2.83;;;;;;;23.36;41.79;100841.53;5012291;28;20210;-83
2022/07/20 00:43:08;;;;;;;5.25;2.70;;;;;;;23.30;42.01;100839.50;5006415;28;20236;-83
2022/07/20 00:45:35;;;;;;;4.38;2.60;;;;;;;23.24;42.13;100840.22;5014012;28;20708;-82
2022/07/20 00:48:02;;;;;;;4.57;2.80;;;;;;;23.19;42.31;100840.75;5006655;28;20207;-83
2022/07/20 00:50:28;;;;;;;6.20;2.90;;;;;;;23.10;42.46;100834.50;5008400;28;20213;-83
2022/07/20 00:52:56;;;;;;;6.30;3.20;;;;;;;23.04;42.63;100828.91;5009076;28;20220;-81
2022/07/20 00:55:24;;;;;;;7.90;3.42;;;;;;;22.99;42.58;100826.69;5010829;28;20599;-81
2022/07/20 00:57:50;;;;;;;4.25;2.25;;;;;;;22.97;42.90;100822.47;5012887;28;20218;-82
2022/07/20 01:00:17;;;;;;;3.38;2.47;;;;;;;22.95;42.87;100824.50;5007209;28;20207;-82
2022/07/20 01:02:43;;;;;;;4.90;2.53;;;;;;;22.97;42.94;100830.59;5015182;28;20202;-82
2022/07/20 01:05:13;;;;;;;6.18;2.80;;;;;;;22.95;42.61;100827.22;5012517;28;20233;-82
2022/07/20 01:07:40;;;;;;;2.97;2.03;;;;;;;22.93;42.55;100829.28;5000521;28;20783;-82
2022/07/20 01:10:09;;;;;;;5.95;3.00;;;;;;;22.87;42.70;100827.25;5013633;28;20207;-82
2022/07/20 01:12:37;;;;;;;11.20;2.88;;;;;;;22.73;43.02;100816.03;5011803;28;20202;-82
2022/07/20 01:15:05;;;;;;;11.90;2.97;;;;;;;22.63;43.22;100822.66;5012435;28;20226;-82
2022/07/20 01:17:31;;;;;;;2.63;2.40;;;;;;;22.49;43.33;100829.63;5011987;28;20571;-82
2022/07/20 01:19:58;;;;;;;5.57;2.95;;;;;;;22.33;43.59;100818.75;5013003;28;20218;-82
2022/07/20 01:22:26;;;;;;;6.68;3.28;;;;;;;22.19;44.02;100819.44;5008333;28;20217;-81
2022/07/20 01:24:52;;;;;;;8.13;3.00;;;;;;;22.08;44.50;100826.88;5010535;28;20766;-82
2022/07/20 01:27:19;;;;;;;4.82;2.38;;;;;;;21.99;44.51;100825.16;5011894;28;20265;-81
2022/07/20 01:29:46;;;;;;;5.20;2.15;;;;;;;21.94;44.82;100834.78;5011730;28;20205;-82
2022/07/20 01:32:12;;;;;;;7.95;2.97;;;;;;;21.93;44.96;100830.38;5006653;28;20202;-83
2022/07/20 01:34:39;;;;;;;6.32;2.80;;;;;;;21.93;45.10;100824.94;5013979;28;20723;-81
2022/07/20 01:37:05;;;;;;;3.15;2.45;;;;;;;21.93;44.90;100828.50;5003885;28;20206;-83
2022/07/20 01:39:33;;;;;;;5.07;2.60;;;;;;;21.94;45.11;100827.50;5012590;28;20205;-83
2022/07/20 01:41:59;;;;;;;7.97;2.85;;;;;;;21.96;44.98;100822.75;5009543;28;20886;-83
2022/07/20 01:44:26;;;;;;;6.10;2.70;;;;;;;21.98;45.17;100817.16;5012934;28;20230;-82
2022/07/20 01:46:53;;;;;;;6.85;2.97;;;;;;;21.99;45.14;100818.88;5012013;28;20225;-82
2022/07/20 01:49:20;;;;;;;6.88;2.60;;;;;;;21.95;44.79;100820.22;5013382;28;20213;-83
2022/07/20 01:51:46;;;;;;;4.82;2.85;;;;;;;21.86;44.83;100818.47;5005206;28;20221;-82
2022/07/20 01:54:13;;;;;;;8.00;2.70;;;;;;;21.75;45.13;100816.94;5012554;28;20909;-82
2022/07/20 01:56:42;;;;;;;11.32;3.05;;;;;;;21.65;45.44;100808.97;5011388;28;20649;-83
2022/07/20 01:59:08;;;;;;;5.97;2.83;;;;;;;21.57;45.92;100808.06;5011439;28;20220;-82
2022/07/20 02:01:35;;;;;;;4.43;2.77;;;;;;;21.53;46.17;100807.53;5012183;28;20214;-81
2022/07/20 02:04:02;;;;;;;3.50;2.23;;;;;;;21.52;46.06;100805.00;5016747;28;20225;-82
2022/07/20 02:06:29;;;;;;;3.57;2.70;;;;;;;21.51;45.87;100800.59;5016371;28;20245;-82
2022/07/20 02:08:56;;;;;;;6.93;3.13;;;;;;;21.50;45.63;100801.63;5006364;28;20670;-82
2022/07/20 02:11:22;;;;;;;6.83;2.60;;;;;;;21.47;45.26;100803.66;5009715;28;20207;-83
2022/07/20 02:13:50;;;;;;;8.43;2.73;;;;;;;21.42;44.76;100799.72;5011492;28;20236;-82
2022/07/20 02:16:17;;;;;;;5.30;2.50;;;;;;;21.36;45.16;100800.38;5011956;28;20205;-83
2022/07/20 02:18:45;;;;;;;4.40;2.90;;;;;;;21.29;45.61;100794.78;5007545;28;20660;-82
2022/07/20 02:21:12;;;;;;;5.87;2.53;;;;;;;21.22;45.83;100799.13;4999553;28;20208;-81
2022/07/20 02:23:38;;;;;;;3.87;2.67;;;;;;;21.16;46.01;100799.72;5005349;28;20704;-83
2022/07/20 02:26:05;;;;;;;4.87;2.83;;;;;;;21.11;46.08;100804.81;5010833;28;20208;-82
2022/07/20 02:28:32;;;;;;;3.43;2.30;;;;;;;21.05;46.15;100800.03;5007680;28;20209;-81
2022/07/20 02:31:00;;;;;;;3.37;2.50;;;;;;;21.00;46.33;100800.50;5010184;28;20701;-82
2022/07/20 02:33:26;;;;;;;5.83;2.70;;;;;;;20.97;46.46;100802.69;5018753;28;20228;-82
2022/07/20 02:35:53;;;;;;;3.83;2.60;;;;;;;20.96;46.34;100803.72;5016161;28;20220;-82
2022/07/20 02:38:20;;;;;;;3.70;2.30;;;;;;;20.96;46.09;100803.72;5010165;28;20578;-81
2022/07/20 02:40:46;;;;;;;4.93;2.37;;;;;;;20.95;46.04;100807.44;5017145;28;20210;-82
2022/07/20 02:43:13;;;;;;;4.83;2.63;;;;;;;20.92;46.11;100797.78;5012925;28;20330;-81
2022/07/20 02:45:39;;;;;;;4.23;2.30;;;;;;;20.91;46.02;100804.19;5016584;28;20558;-82
2022/07/20 02:48:07;;;;;;;8.17;2.60;;;;;;;20.86;46.31;100794.84;5011037;28;20574;-82
2022/07/20 02:50:37;;;;;;;6.50;2.53;;;;;;;20.80;46.51;100807.16;5010443;28;20223;-82
2022/07/20 02:53:04;;;;;;;5.87;2.80;;;;;;;20.73;46.65;100797.97;5010342;28;20201;-82
2022/07/20 02:55:30;;;;;;;6.30;2.60;;;;;;;20.64;46.68;100794.34;5013696;28;20226;-82
2022/07/20 02:57:57;;;;;;;4.23;2.60;;;;;;;20.58;46.58;100802.28;5011293;28;20210;-83
2022/07/20 03:00:24;;;;;;;5.07;2.57;;;;;;;20.54;46.91;100807.16;5013623;28;20204;-82
2022/07/20 03:02:51;;;;;;;4.50;3.00;;;;;;;20.51;46.91;100802.03;5010849;28;20294;-83
2022/07/20 03:05:19;;;;;;;5.47;2.60;;;;;;;20.48;47.03;100796.09;5017481;28;20225;-83
2022/07/20 03:07:46;;;;;;;6.00;2.47;;;;;;;20.45;47.41;100794.53;5014803;28;20237;-82
2022/07/20 03:10:13;;;;;;;4.77;2.93;;;;;;;20.43;47.21;100796.56;5010833;28;20206;-82
2022/07/20 03:12:39;;;;;;;5.57;2.43;;;;;;;20.41;47.23;100794.03;5004744;28;20699;-82
2022/07/20 03:15:07;;;;;;;6.10;2.90;;;;;;;20.40;47.42;100792.34;5010860;28;20237;-82
2022/07/20 03:17:41;;;;;;;4.43;2.63;;;;;;;20.37;47.73;100799.91;5010562;28;20208;-81
2022/07/20 03:20:09;;;;;;;4.13;2.83;;;;;;;20.32;47.94;100802.19;5005244;28;20194;-82
2022/07/20 03:22:37;;;;;;;6.20;2.90;;;;;;;20.23;48.30;100804.00;5011595;28;20207;-82
2022/07/20 03:25:04;;;;;;;3.73;2.73;;;;;;;20.15;48.85;100797.66;5011255;28;20230;-83
2022/07/20 03:27:30;;;;;;;6.77;3.27;;;;;;;20.06;49.04;100800.25;5001179;28;20229;-81
2022/07/20 03:29:57;;;;;;;5.53;3.30;;;;;;;20.00;49.36;100803.59;5009162;28;20209;-82
2022/07/20 03:32:23;;;;;;;4.83;3.23;;;;;;;19.96;49.54;100809.47;5010953;28;20213;-81
2022/07/20 03:34:50;;;;;;;3.87;2.57;;;;;;;19.90;49.89;100810.91;5010719;28;20316;-82
2022/07/20 03:37:17;;;;;;;6.83;2.90;;;;;;;19.87;49.91;100811.25;5011942;28;20661;-82
2022/07/20 03:39:44;;;;;;;7.00;3.27;;;;;;;19.85;50.09;100813.25;5012344;28;20209;-83
2022/07/20 03:42:11;;;;;;;5.93;3.13;;;;;;;19.86;50.08;100820.38;5010670;28;20209;-82
2022/07/20 03:44:37;;;;;;;5.27;2.90;;;;;;;19.88;50.13;100823.78;5011610;28;20226;-82
2022/07/20 03:47:04;;;;;;;4.90;3.63;;;;;;;19.91;49.99;100828.84;5005614;28;20745;-82
2022/07/20 03:49:31;;;;;;;4.97;3.10;;;;;;;19.94;50.03;100827.69;5015875;28;20211;-83
2022/07/20 03:51:57;;;;;;;5.00;3.40;;;;;;;19.96;50.03;100831.09;5010031;28;20828;-82
2022/07/20 03:54:24;;;;;;;5.70;3.37;;;;;;;19.96;50.04;100831.94;5011680;28;20236;-83
2022/07/20 03:56:52;;;;;;;4.40;3.17;;;;;;;19.96;50.03;100831.94;5009988;28;20214;-82
2022/07/20 03:59:18;;;;;;;3.47;2.90;;;;;;;19.97;50.24;100828.25;5011584;28;20220;-82
2022/07/20 04:01:45;;;;;;;4.27;2.93;;;;;;;19.99;50.36;100831.63;5007545;28;20210;-82
2022/07/20 04:04:11;;;;;;;7.50;3.13;;;;;;;20.00;49.97;100838.75;5009542;28;20230;-82
2022/07/20 04:06:38;;;;;;;4.67;3.27;;;;;;;20.02;50.07;100836.75;5008862;28;20229;-82
2022/07/20 04:09:05;;;;;;;4.03;2.50;;;;;;;20.05;49.78;100828.34;5015683;28;20201;-82
2022/07/20 04:11:32;;;;;;;4.97;3.00;;;;;;;20.07;50.02;100831.72;5010675;28;20209;-81
2022/07/20 04:14:00;;;;;;;5.87;3.23;;;;;;;20.11;50.21;100830.41;5012503;28;20237;-81
2022/07/20 04:16:26;;;;;;;5.60;3.20;;;;;;;20.14;49.84;100831.09;5005067;28;20244;-82
2022/07/20 04:18:52;;;;;;;4.33;2.53;;;;;;;20.18;49.81;100835.22;5008204;28;20213;-82
2022/07/20 04:21:19;;;;;;;4.63;2.93;;;;;;;20.23;49.73;100838.31;5008895;28;20213;-83
2022/07/20 04:23:45;;;;;;;7.47;3.17;;;;;;;20.26;49.92;100836.13;4998204;28;20241;-83
2022/07/20 04:26:12;;;;;;;3.60;3.30;;;;;;;20.30;49.66;100831.25;5009091;28;20228;-83
2022/07/20 04:28:39;;;;;;;4.63;3.10;;;;;;;20.34;49.75;100832.66;5010542;28;20234;-82
2022/07/20 04:31:06;;;;;;;3.77;3.10;;;;;;;20.38;50.23;100836.78;5009487;28;20633;-83
2022/07/20 04:33:33;;;;;;;5.97;3.03;;;;;;;20.41;50.87;100836.47;5012726;28;20234;-82
2022/07/20 04:35:59;;;;;;;7.07;3.50;;;;;;;20.46;51.49;100839.53;5015243;28;20219;-83
2022/07/20 04:38:26;;;;;;;6.40;3.30;;;;;;;20.48;51.50;100834.81;5012288;28;20210;-83
2022/07/20 04:40:53;;;;;;;8.20;3.27;;;;;;;20.48;51.70;100840.22;5004225;28;20702;-83
2022/07/20 04:43:20;;;;;;;8.47;3.60;;;;;;;20.48;52.11;100837.53;5012563;28;20216;-82
2022/07/20 04:45:46;;;;;;;4.07;2.93;;;;;;;20.45;51.83;100840.53;5018657;28;20205;-82
2022/07/20 04:48:14;;;;;;;8.20;3.50;;;;;;;20.43;52.42;100835.28;5012408;28;20244;-83
2022/07/20 04:50:41;;;;;;;4.93;3.23;;;;;;;20.42;52.86;100844.41;5005105;28;20212;-83
2022/07/20 04:53:07;;;;;;;5.30;3.47;;;;;;;20.43;53.09;100839.84;5011857;28;20821;-82
2022/07/20 04:55:34;;;;;;;6.20;3.30;;;;;;;20.42;53.27;100836.28;5003655;28;20287;-82
2022/07/20 04:58:00;;;;;;;6.87;3.10;;;;;;;20.42;53.50;100838.19;5010833;28;20202;-83
2022/07/20 05:00:27;;;;;;;9.43;3.90;;;;;;;20.44;53.52;100842.41;5010254;28;20231;-83
2022/07/20 05:02:53;;;;;;;8.33;3.60;;;;;;;20.45;53.52;100833.28;5008526;28;20210;-83
2022/07/20 05:05:21;;;;;;;6.07;3.50;;;;;;;20.50;53.44;100840.94;5006534;28;20727;-82
2022/07/20 05:07:47;;;;;;;4.37;3.37;;;;;;;20.54;53.29;100836.06;5001941;28;20228;-83
2022/07/20 05:10:14;;;;;;;5.97;3.40;;;;;;;20.59;53.65;100840.00;5008306;28;20216;-82
2022/07/20 05:12:41;;;;;;;4.70;3.43;;;;;;;20.66;53.93;100835.66;5007596;28;20217;-83
2022/07/20 05:15:08;;;;;;;6.00;3.13;;;;;;;20.73;54.73;100836.72;5013011;28;20253;-83
2022/07/20 05:17:35;;;;;;;12.50;3.50;;;;;;;20.80;54.21;100837.78;5008097;28;20217;-83
2022/07/20 05:20:01;;;;;;;5.20;3.00;;;;;;;20.87;53.59;100845.28;5008265;28;21404;-83
2022/07/20 05:22:29;;;;;;;10.03;3.97;;;;;;;20.92;53.03;100848.34;5009311;28;20205;-83
2022/07/20 05:24:56;;;;;;;4.17;3.20;;;;;;;20.98;52.32;100842.28;5009802;28;20271;-83
2022/07/20 05:27:22;;;;;;;4.93;2.90;;;;;;;21.05;52.11;100836.09;5008987;28;20234;-82
2022/07/20 05:29:49;;;;;;;8.13;3.57;;;;;;;21.11;51.01;100834.59;5008630;28;20718;-82
2022/07/20 05:32:15;;;;;;;4.57;3.00;;;;;;;21.19;50.63;100842.75;5010537;28;20287;-81
2022/07/20 05:34:42;;;;;;;4.93;2.90;;;;;;;21.28;50.26;100841.84;5014213;28;20235;-82
2022/07/20 05:37:08;;;;;;;6.93;3.33;;;;;;;21.41;49.93;100833.25;5012851;28;20203;-84
2022/07/20 05:39:36;;;;;;;4.47;2.80;;;;;;;21.51;49.34;100828.53;5018604;28;20701;-82
2022/07/20 05:42:03;;;;;;;5.47;3.03;;;;;;;21.64;49.17;100844.38;5014826;28;20217;-85
2022/07/20 05:44:29;;;;;;;8.23;3.10;;;;;;;21.77;49.00;100847.44;5013995;28;20227;-83
2022/07/20 05:46:56;;;;;;;6.20;3.13;;;;;;;21.91;49.02;100844.09;5009113;28;20683;-83
2022/07/20 05:49:23;;;;;;;6.18;2.95;;;;;;;22.05;49.01;100829.06;5013888;28;20230;-84
2022/07/20 05:51:49;;;;;;;6.60;3.60;;;;;;;22.21;48.44;100836.41;5010508;28;20208;-83
2022/07/20 05:54:16;;;;;;;7.22;3.70;;;;;;;22.34;48.29;100828.59;5006648;28;20230;-84
2022/07/20 05:56:44;;;;;;;11.68;3.80;;;;;;;22.52;48.02;100837.44;5009405;28;20697;-82
2022/07/20 05:59:10;;;;;;;9.60;3.22;;;;;;;22.69;47.84;100835.56;5011358;28;20206;-83
2022/07/20 06:01:38;;;;;;;10.82;4.03;;;;;;;22.88;47.36;100837.94;5008424;28;20670;-83
2022/07/20 06:04:04;;;;;;;7.90;3.30;;;;;;;23.07;47.16;100829.41;5013947;28;20234;-84
2022/07/20 06:06:31;;;;;;;12.98;3.97;;;;;;;23.28;46.79;100838.88;5011468;28;20215;-83
2022/07/20 06:08:58;;;;;;;9.52;3.38;;;;;;;23.48;46.29;100840.97;5011867;28;20729;-83
2022/07/20 06:11:24;;;;;;;7.43;3.45;;;;;;;23.70;45.91;100838.53;5012962;28;20669;-83
2022/07/20 06:13:52;;;;;;;4.85;3.22;;;;;;;23.91;44.97;100838.78;5012102;28;20226;-84
2022/07/20 06:16:19;;;;;;;7.35;3.97;;;;;;;24.12;44.61;100833.53;5010482;28;20667;-83
2022/07/20 06:18:45;;;;;;;7.40;3.30;;;;;;;24.36;44.58;100834.44;5011773;28;20578;-83
2022/07/20 06:21:13;;;;;;;6.65;3.65;;;;;;;24.57;44.12;100832.69;5011481;28;20206;-84
2022/07/20 06:23:40;;;;;;;6.78;3.22;;;;;;;24.82;44.37;100833.31;5011787;28;20232;-83
2022/07/20 06:26:07;;;;;;;7.97;3.47;;;;;;;25.06;43.54;100836.88;5012081;28;20642;-83
2022/07/20 06:28:33;;;;;;;5.18;3.13;;;;;;;25.27;43.31;100834.22;5013696;28;20604;-83
2022/07/20 06:31:01;;;;;;;8.23;2.60;;;;;;;25.52;42.92;100840.25;5012851;28;20238;-84
2022/07/20 06:33:28;;;;;;;8.27;3.60;;;;;;;25.76;42.35;100839.97;5011147;28;20571;-83
2022/07/20 06:35:54;;;;;;;8.27;3.08;;;;;;;26.00;41.85;100840.63;5009105;28;20222;-84
2022/07/20 06:38:21;;;;;;;6.78;3.17;;;;;;;26.23;41.67;100836.69;5012984;28;20206;-83
2022/07/20 06:40:47;;;;;;;5.95;3.47;;;;;;;26.47;40.90;100840.97;5018481;28;20673;-82
2022/07/20 06:43:14;;;;;;;5.90;3.28;;;;;;;26.72;40.33;100841.38;5009759;28;20219;-84
2022/07/20 06:45:40;;;;;;;5.78;3.17;;;;;;;26.95;39.84;100831.09;5014329;28;20203;-82
2022/07/20 06:48:08;;;;;;;7.63;3.30;;;;;;;27.21;39.49;100837.78;5011751;28;20222;-82
2022/07/20 06:50:35;;;;;;;5.13;2.97;;;;;;;27.44;38.14;100846.53;5007979;28;20210;-82
2022/07/20 06:53:01;;;;;;;6.38;3.30;;;;;;;27.65;36.20;100840.13;5012570;28;20216;-82
2022/07/20 06:55:28;;;;;;;4.40;2.88;;;;;;;27.89;35.52;100841.50;5012212;28;20219;-83
2022/07/20 06:57:54;;;;;;;5.43;3.22;;;;;;;28.18;35.15;100851.25;5011852;28;21273;-83
2022/07/20 07:00:21;;;;;;;4.88;2.88;;;;;;;28.45;34.12;100841.25;5014073;28;20210;-83
2022/07/20 07:02:47;;;;;;;3.20;2.75;;;;;;;28.71;32.89;100849.47;5013057;28;20209;-85
2022/07/20 07:05:15;;;;;;;6.10;2.53;;;;;;;28.97;32.46;100838.53;5012300;28;20239;-84
2022/07/20 07:07:42;;;;;;;5.15;2.67;;;;;;;29.27;32.08;100838.03;5006575;28;20705;-84
2022/07/20 07:10:08;;;;;;;3.22;2.65;;;;;;;29.54;31.41;100834.22;5011581;28;20217;-84
2022/07/20 07:12:35;;;;;;;8.68;2.92;;;;;;;29.81;31.12;100845.06;5011825;28;20207;-84
2022/07/20 07:15:01;;;;;;;8.32;2.58;;;;;;;30.08;30.37;100843.91;5012330;28;20603;-83
2022/07/20 07:17:30;;;;;;;3.08;2.60;;;;;;;30.33;30.40;100839.28;5009677;28;20904;-84
2022/07/20 07:19:57;;;;;;;5.63;2.65;;;;;;;30.58;29.92;100838.53;5012567;28;20211;-84
2022/07/20 07:22:25;;;;;;;4.53;3.10;;;;;;;30.81;29.46;100829.66;5006824;28;20207;-83
2022/07/20 07:24:52;;;;;;;6.22;2.95;;;;;;;31.01;29.35;100831.13;5011778;28;20250;-83
2022/07/20 07:27:18;;;;;;;3.40;2.65;;;;;;;31.23;29.29;100830.72;5011699;28;20207;-81
2022/07/20 07:29:45;;;;;;;4.20;3.08;;;;;;;31.44;28.30;100834.94;5011108;28;20222;-81
2022/07/20 07:32:11;;;;;;;3.88;2.60;;;;;;;31.62;28.60;100834.94;5013043;28;20198;-83
2022/07/20 07:34:37;;;;;;;4.15;2.63;;;;;;;31.77;28.36;100838.16;5012259;28;20226;-84
2022/07/20 07:37:04;;;;;;;4.43;2.90;;;;;;;31.98;28.24;100836.84;5013944;28;20202;-83
2022/07/20 07:39:32;;;;;;;4.93;2.70;;;;;;;32.17;27.51;100838.47;5007864;28;20203;-81
2022/07/20 07:41:58;;;;;;;5.72;2.53;;;;;;;32.29;26.95;100828.34;5011165;28;20854;-82
2022/07/20 07:44:25;;;;;;;3.03;2.72;;;;;;;32.47;27.45;100829.34;5013732;28;20230;-81
2022/07/20 07:46:52;;;;;;;6.78;2.60;;;;;;;32.63;27.40;100829.47;5011078;28;20210;-81
2022/07/20 07:49:18;;;;;;;7.53;3.15;;;;;;;32.82;27.28;100832.16;5011214;28;20226;-81
2022/07/20 07:51:45;;;;;;;6.90;2.90;;;;;;;32.96;27.39;100830.88;5011231;28;20669;-81
2022/07/20 07:54:12;;;;;;;4.63;2.95;;;;;;;33.12;27.53;100821.88;5007282;28;20225;-82
2022/07/20 07:56:41;;;;;;;7.57;3.33;;;;;;;33.27;26.97;100829.69;5005582;28;20223;-81
2022/07/20 07:59:08;;;;;;;3.20;2.90;;;;;;;33.39;26.93;100827.75;5010373;28;20206;-83
2022/07/20 08:01:34;;;;;;;3.03;2.60;;;;;;;33.52;26.96;100821.94;5010718;28;20210;-83
2022/07/20 08:04:01;;;;;;;8.70;2.70;;;;;;;33.66;26.89;100819.75;5006078;28;20631;-84
2022/07/20 08:06:28;;;;;;;4.18;2.80;;;;;;;33.79;26.38;100827.78;5005022;28;20581;-83
2022/07/20 08:08:54;;;;;;;10.25;3.17;;;;;;;33.91;26.51;100822.22;5007243;28;20754;-84
2022/07/20 08:11:21;;;;;;;3.72;2.92;;;;;;;34.01;26.53;100816.91;5007901;28;20222;-84
2022/07/20 08:13:49;;;;;;;4.25;2.92;;;;;;;34.13;26.68;100823.19;5011035;28;20226;-82
2022/07/20 08:16:15;;;;;;;6.45;2.75;;;;;;;34.30;26.75;100823.25;5001725;28;20203;-83
2022/07/20 08:18:42;;;;;;;3.03;2.60;;;;;;;34.42;25.51;100816.56;5012316;28;20207;-83
2022/07/20 08:21:08;;;;;;;12.18;2.97;;;;;;;34.55;25.29;100820.94;5011791;28;20222;-84
2022/07/20 08:23:35;;;;;;;7.30;2.60;;;;;;;34.72;24.83;100809.88;5005578;28;20226;-83
2022/07/20 08:26:01;;;;;;;7.38;3.28;;;;;;;34.75;24.04;100809.38;5010540;28;20835;-83
2022/07/20 08:28:28;;;;;;;3.22;2.72;;;;;;;34.87;24.36;100812.06;5010401;28;20230;-82
2022/07/20 08:30:56;;;;;;;3.28;2.67;;;;;;;34.95;24.07;100811.63;5010978;28;20207;-83
2022/07/20 08:33:22;;;;;;;4.57;3.20;;;;;;;35.01;23.57;100800.38;5012435;28;20202;-83
2022/07/20 08:35:49;;;;;;;6.38;2.60;;;;;;;35.11;23.90;100803.28;5001727;28;20210;-83
2022/07/20 08:38:16;;;;;;;3.63;2.78;;;;;;;35.19;23.73;100810.31;4995311;28;20789;-83
2022/07/20 08:40:43;;;;;;;3.17;2.70;;;;;;;35.31;23.92;100816.59;5004201;28;20265;-83
2022/07/20 08:43:10;;;;;;;4.25;2.85;;;;;;;35.43;23.27;100808.19;5003904;28;20210;-83
2022/07/20 08:45:37;;;;;;;2.90;2.50;;;;;;;35.54;23.25;100809.97;5006914;28;20255;-84
2022/07/20 08:48:08;;;;;;;4.82;2.38;;;;;;;35.66;22.95;100802.34;5007832;28;20210;-84
2022/07/20 08:50:35;;;;;;;3.17;2.75;;;;;;;35.76;22.52;100812.78;5010099;28;20214;-83
2022/07/20 08:53:01;;;;;;;9.88;2.80;;;;;;;35.83;22.44;100808.69;5010601;28;20203;-84
2022/07/20 08:55:28;;;;;;;5.10;2.40;;;;;;;35.94;22.04;100811.59;5009304;28;20234;-83
2022/07/20 08:57:55;;;;;;;5.32;2.70;;;;;;;36.04;22.09;100811.69;5010353;28;20238;-83
2022/07/20 09:00:22;;;;;;;6.40;2.17;;;;;;;36.14;21.78;100804.31;5008740;28;20215;-83
2022/07/20 09:02:51;;;;;;;3.00;2.63;;;;;;;36.24;21.77;100806.38;5006466;28;20212;-83
2022/07/20 09:05:20;;;;;;;4.93;2.50;;;;;;;36.34;21.90;100803.72;5009093;28;20716;-85
2022/07/20 09:07:48;;;;;;;3.38;2.38;;;;;;;36.39;21.76;100808.44;5002063;28;20677;-84
2022/07/20 09:10:17;;;;;;;3.88;2.60;;;;;;;36.47;21.74;100806.03;5013166;28;20640;-84
2022/07/20 09:12:57;;;;;;;5.13;2.70;;;;;;;36.59;20.79;100802.22;5008257;28;20335;-83
2022/07/20 09:15:30;;;;;;;3.97;2.53;;;;;;;36.65;21.36;100807.56;5008584;28;20222;-85
2022/07/20 09:18:05;;;;;;;4.25;2.35;;;;;;;36.75;20.68;100815.16;4999615;28;20203;-83
2022/07/20 09:20:34;;;;;;;5.07;2.70;;;;;;;36.77;20.88;100811.00;5005631;28;20203;-83
2022/07/20 09:23:02;;;;;;;3.83;2.50;;;;;;;36.81;20.33;100811.31;5004859;28;20217;-83
2022/07/20 09:25:29;;;;;;;7.10;2.53;;;;;;;36.88;20.87;100805.53;5001425;28;20224;-84
2022/07/20 09:27:56;;;;;;;9.20;2.67;;;;;;;36.98;20.28;100808.38;5000861;28;20203;-84
2022/07/20 09:30:23;;;;;;;5.97;2.72;;;;;;;37.12;21.20;100806.78;5008867;28;20231;-84
2022/07/20 09:32:52;;;;;;;3.17;2.63;;;;;;;37.27;21.23;100803.28;5005622;28;20213;-84
2022/07/20 09:35:22;;;;;;;4.00;2.78;;;;;;;37.38;21.10;100803.09;5008476;28;20235;-84
2022/07/20 09:37:50;;;;;;;7.25;2.75;;;;;;;37.48;20.98;100810.63;5010203;28;20221;-83
2022/07/20 09:40:16;;;;;;;6.95;2.92;;;;;;;37.55;20.54;100814.00;5006898;28;20218;-84
2022/07/20 09:42:45;;;;;;;3.47;2.53;;;;;;;37.66;20.12;100809.31;5012927;28;20773;-83
2022/07/20 09:45:24;;;;;;;3.42;2.17;;;;;;;37.75;20.79;100805.75;5011883;28;20367;-83
2022/07/20 09:48:08;;;;;;;3.97;2.60;;;;;;;37.81;20.21;100801.03;5013430;28;20610;-84
2022/07/20 09:50:38;;;;;;;5.80;2.92;;;;;;;37.83;19.68;100798.81;5008333;28;20703;-84
2022/07/20 09:53:06;;;;;;;3.72;2.85;;;;;;;37.87;20.16;100797.16;5012547;28;20217;-84
2022/07/20 09:55:34;;;;;;;5.95;2.88;;;;;;;37.92;20.22;100804.69;5016405;28;20310;-84
2022/07/20 09:58:01;;;;;;;4.93;2.70;;;;;;;37.94;19.77;100803.31;5014156;28;20199;-83
2022/07/20 10:00:29;;;;;;;13.15;3.38;;;;;;;37.97;19.58;100802.75;5014784;28;20210;-84
2022/07/20 10:02:58;;;;;;;6.68;2.92;;;;;;;38.00;19.02;100806.91;5014414;28;20245;-84
2022/07/20 10:05:25;;;;;;;3.25;2.95;;;;;;;38.02;19.05;100805.53;5011359;28;20227;-83
2022/07/20 10:07:52;;;;;;;5.88;2.88;;;;;;;38.06;19.30;100811.38;5002961;28;20594;-84
2022/07/20 10:10:20;;;;;;;7.97;2.95;;;;;;;38.13;19.80;100807.25;5007711;28;20239;-83
2022/07/20 10:12:46;;;;;;;4.80;2.70;;;;;;;38.21;19.03;100803.91;5009854;28;20207;-84
2022/07/20 10:15:17;;;;;;;6.97;3.00;;;;;;;38.23;18.65;100800.88;5007992;28;20227;-84
2022/07/20 10:17:44;;;;;;;4.25;2.80;;;;;;;38.26;19.13;100799.47;5010972;28;20199;-84
2022/07/20 10:20:30;;;;;;;4.20;2.90;;;;;;;38.34;18.96;100791.41;5010869;28;20207;-84
2022/07/20 10:23:32;;;;;;;5.88;2.72;;;;;;;38.43;19.12;100792.53;5001047;28;20206;-83
2022/07/20 10:26:00;;;;;;;3.47;2.63;;;;;;;38.52;19.45;100795.56;5007102;28;20222;-83
2022/07/20 10:28:33;;;;;;;4.22;2.75;;;;;;;38.55;18.27;100797.84;5006681;28;20202;-81
2022/07/20 10:31:04;;;;;;;5.40;3.00;;;;;;;38.57;18.36;100789.22;5001777;28;20716;-83
2022/07/20 10:33:32;;;;;;;4.78;2.80;;;;;;;38.60;18.44;100783.94;5005068;28;20226;-84
2022/07/20 10:38:54;;;;;;;3.92;3.10;;;;;;;38.68;18.43;100779.75;5001818;28;20210;-85
2022/07/20 10:41:36;;;;;;;4.38;2.80;;;;;;;38.75;18.46;100778.34;5010645;28;20298;-83
2022/07/20 10:44:28;;;;;;;6.13;2.92;;;;;;;38.81;18.09;100780.00;5007944;28;20250;-84
2022/07/20 10:46:55;;;;;;;6.78;2.83;;;;;;;38.82;17.88;100786.41;5009318;28;20217;-83
2022/07/20 10:50:03;;;;;;;2.85;2.42;;;;;;;38.85;17.77;100777.50;5004915;28;20706;-83
2022/07/20 10:52:32;;;;;;;5.22;2.80;;;;;;;38.88;17.77;100780.53;4991036;28;20256;-83
2022/07/20 10:54:59;;;;;;;4.78;2.80;;;;;;;38.92;17.77;100777.19;5005006;28;20231;-84
2022/07/20 10:57:28;;;;;;;5.43;2.60;;;;;;;38.95;17.71;100768.28;5006428;28;20619;-83
2022/07/20 11:00:13;;;;;;;3.70;2.70;;;;;;;39.01;17.80;100764.41;5003529;28;20254;-84
2022/07/20 11:02:40;;;;;;;4.85;2.90;;;;;;;39.07;17.51;100766.03;5006642;28;20206;-84
2022/07/20 11:05:19;;;;;;;5.90;3.17;;;;;;;39.14;17.03;100767.41;5007470;28;20276;-84
2022/07/20 11:07:46;;;;;;;5.72;3.13;;;;;;;39.18;16.81;100757.38;5004602;28;20211;-84
2022/07/20 11:10:21;;;;;;;4.57;2.40;;;;;;;39.31;17.07;100755.09;5005077;28;20627;-84
2022/07/20 11:12:56;;;;;;;4.45;2.83;;;;;;;39.42;17.01;100757.53;5003442;28;20647;-84
2022/07/20 11:15:23;;;;;;;4.90;3.00;;;;;;;39.44;16.64;100760.91;5007930;28;20712;-84
2022/07/20 11:17:54;;;;;;;5.25;3.20;;;;;;;39.48;16.65;100758.38;5009305;28;20645;-85
2022/07/20 11:20:20;;;;;;;17.60;3.67;;;;;;;39.51;16.50;100753.06;5009035;28;20808;-85
2022/07/20 11:22:48;;;;;;;6.28;3.03;;;;;;;39.51;16.41;100758.66;5006737;28;20203;-84
2022/07/20 11:25:14;;;;;;;3.80;3.00;;;;;;;39.54;16.64;100744.13;5009750;28;20231;-84
2022/07/20 11:27:41;;;;;;;4.10;3.33;;;;;;;39.58;16.88;100749.97;5000216;28;20200;-83
2022/07/20 11:30:10;;;;;;;18.38;4.32;;;;;;;39.64;17.29;100747.97;5006398;28;20230;-83